sensor_id;sensor_type;location;lat;lon;timestamp;P1;durP1;ratioP1;P2;durP2;ratioP2
7195;SDS011;3639;51.308;5.624;2023-11-18T00:02:22;43.30;;;18.97;;
7195;SDS011;3639;51.308;5.624;2023-11-18T00:04:49;39.33;;;18.70;;
7195;SDS011;3639;51.308;5.624;2023-11-18T00:07:15;40.60;;;18.57;;
7195;SDS011;3639;51.308;5.624;2023-11-18T00:09:40;35.70;;;17.20;;
7195;SDS011;3639;51.308;5.624;2023-11-18T00:12:10;38.30;;;17.13;;
7195;SDS011;3639;51.308;5.624;2023-11-18T00:14:36;30.67;;;16.93;;
7195;SDS011;3639;51.308;5.624;2023-11-18T00:17:02;30.53;;;16.60;;
7195;SDS011;3639;51.308;5.624;2023-11-18T00:19:29;31.57;;;16.53;;
7195;SDS011;3639;51.308;5.624;2023-11-18T00:21:55;31.33;;;15.27;;
7195;SDS011;3639;51.308;5.624;2023-11-18T00:24:20;39.37;;;17.63;;
7195;SDS011;3639;51.308;5.624;2023-11-18T00:26:46;35.23;;;16.23;;
7195;SDS011;3639;51.308;5.624;2023-11-18T00:29:12;35.10;;;17.63;;
7195;SDS011;3639;51.308;5.624;2023-11-18T00:31:37;31.47;;;16.47;;
7195;SDS011;3639;51.308;5.624;2023-11-18T00:34:03;35.63;;;16.67;;
7195;SDS011;3639;51.308;5.624;2023-11-18T00:36:28;34.20;;;17.10;;
7195;SDS011;3639;51.308;5.624;2023-11-18T00:38:54;34.47;;;17.93;;
7195;SDS011;3639;51.308;5.624;2023-11-18T00:41:20;37.00;;;17.93;;
7195;SDS011;3639;51.308;5.624;2023-11-18T00:43:46;40.90;;;18.87;;
7195;SDS011;3639;51.308;5.624;2023-11-18T00:46:12;36.43;;;18.13;;
7195;SDS011;3639;51.308;5.624;2023-11-18T00:48:37;39.17;;;17.83;;
7195;SDS011;3639;51.308;5.624;2023-11-18T00:51:03;32.23;;;17.13;;
7195;SDS011;3639;51.308;5.624;2023-11-18T00:53:31;44.27;;;17.20;;
7195;SDS011;3639;51.308;5.624;2023-11-18T00:55:56;34.27;;;17.67;;
7195;SDS011;3639;51.308;5.624;2023-11-18T00:58:22;30.27;;;16.80;;
7195;SDS011;3639;51.308;5.624;2023-11-18T01:00:48;32.07;;;16.13;;
7195;SDS011;3639;51.308;5.624;2023-11-18T01:03:13;33.00;;;17.33;;
7195;SDS011;3639;51.308;5.624;2023-11-18T01:05:39;35.50;;;18.00;;
7195;SDS011;3639;51.308;5.624;2023-11-18T01:08:04;36.17;;;16.77;;
7195;SDS011;3639;51.308;5.624;2023-11-18T01:10:30;39.87;;;19.00;;
7195;SDS011;3639;51.308;5.624;2023-11-18T01:12:56;38.50;;;18.20;;
7195;SDS011;3639;51.308;5.624;2023-11-18T01:15:23;34.07;;;18.23;;
7195;SDS011;3639;51.308;5.624;2023-11-18T01:17:48;31.27;;;16.27;;
7195;SDS011;3639;51.308;5.624;2023-11-18T01:20:14;33.60;;;17.20;;
7195;SDS011;3639;51.308;5.624;2023-11-18T01:22:45;33.77;;;17.87;;
7195;SDS011;3639;51.308;5.624;2023-11-18T01:25:13;40.10;;;18.47;;
7195;SDS011;3639;51.308;5.624;2023-11-18T01:27:42;34.80;;;18.20;;
7195;SDS011;3639;51.308;5.624;2023-11-18T01:30:07;36.87;;;18.37;;
7195;SDS011;3639;51.308;5.624;2023-11-18T01:32:34;32.17;;;16.27;;
7195;SDS011;3639;51.308;5.624;2023-11-18T01:35:00;41.27;;;18.97;;
7195;SDS011;3639;51.308;5.624;2023-11-18T01:37:26;41.00;;;19.50;;
7195;SDS011;3639;51.308;5.624;2023-11-18T01:39:51;38.27;;;18.53;;
7195;SDS011;3639;51.308;5.624;2023-11-18T01:42:17;43.70;;;20.30;;
7195;SDS011;3639;51.308;5.624;2023-11-18T01:44:42;45.23;;;20.27;;
7195;SDS011;3639;51.308;5.624;2023-11-18T01:47:08;41.87;;;20.20;;
7195;SDS011;3639;51.308;5.624;2023-11-18T01:49:37;40.23;;;19.20;;
7195;SDS011;3639;51.308;5.624;2023-11-18T01:52:05;36.13;;;19.90;;
7195;SDS011;3639;51.308;5.624;2023-11-18T01:54:36;41.60;;;19.30;;
7195;SDS011;3639;51.308;5.624;2023-11-18T01:57:03;43.53;;;20.20;;
7195;SDS011;3639;51.308;5.624;2023-11-18T01:59:30;41.23;;;19.30;;
7195;SDS011;3639;51.308;5.624;2023-11-18T02:01:58;37.77;;;19.60;;
7195;SDS011;3639;51.308;5.624;2023-11-18T02:04:24;43.03;;;20.70;;
7195;SDS011;3639;51.308;5.624;2023-11-18T02:06:50;39.47;;;20.53;;
7195;SDS011;3639;51.308;5.624;2023-11-18T02:09:18;42.30;;;21.07;;
7195;SDS011;3639;51.308;5.624;2023-11-18T02:14:45;43.43;;;22.20;;
7195;SDS011;3639;51.308;5.624;2023-11-18T02:17:12;36.30;;;20.83;;
7195;SDS011;3639;51.308;5.624;2023-11-18T02:19:40;48.37;;;22.27;;
7195;SDS011;3639;51.308;5.624;2023-11-18T02:22:06;42.63;;;20.50;;
7195;SDS011;3639;51.308;5.624;2023-11-18T02:24:32;47.30;;;22.53;;
7195;SDS011;3639;51.308;5.624;2023-11-18T02:27:02;47.93;;;21.10;;
7195;SDS011;3639;51.308;5.624;2023-11-18T02:29:33;43.13;;;21.23;;
7195;SDS011;3639;51.308;5.624;2023-11-18T02:32:51;47.73;;;21.90;;
7195;SDS011;3639;51.308;5.624;2023-11-18T02:35:24;41.93;;;20.20;;
7195;SDS011;3639;51.308;5.624;2023-11-18T02:37:55;45.17;;;21.90;;
7195;SDS011;3639;51.308;5.624;2023-11-18T02:40:26;52.07;;;21.80;;
7195;SDS011;3639;51.308;5.624;2023-11-18T02:43:02;49.20;;;21.57;;
7195;SDS011;3639;51.308;5.624;2023-11-18T02:45:35;47.60;;;20.77;;
7195;SDS011;3639;51.308;5.624;2023-11-18T02:48:02;40.70;;;21.33;;
7195;SDS011;3639;51.308;5.624;2023-11-18T02:50:29;44.40;;;21.00;;
7195;SDS011;3639;51.308;5.624;2023-11-18T02:52:55;45.17;;;21.60;;
7195;SDS011;3639;51.308;5.624;2023-11-18T02:55:21;48.27;;;20.53;;
7195;SDS011;3639;51.308;5.624;2023-11-18T02:57:47;49.23;;;22.03;;
7195;SDS011;3639;51.308;5.624;2023-11-18T03:00:14;44.63;;;20.43;;
7195;SDS011;3639;51.308;5.624;2023-11-18T03:02:46;44.50;;;21.33;;
7195;SDS011;3639;51.308;5.624;2023-11-18T03:05:13;50.33;;;21.73;;
7195;SDS011;3639;51.308;5.624;2023-11-18T03:07:46;44.07;;;21.20;;
7195;SDS011;3639;51.308;5.624;2023-11-18T03:10:15;43.27;;;21.03;;
7195;SDS011;3639;51.308;5.624;2023-11-18T03:12:48;45.20;;;21.47;;
7195;SDS011;3639;51.308;5.624;2023-11-18T03:15:14;42.50;;;21.80;;
7195;SDS011;3639;51.308;5.624;2023-11-18T03:17:46;41.80;;;21.00;;
7195;SDS011;3639;51.308;5.624;2023-11-18T03:20:13;44.57;;;21.70;;
7195;SDS011;3639;51.308;5.624;2023-11-18T03:22:42;42.90;;;21.03;;
7195;SDS011;3639;51.308;5.624;2023-11-18T03:25:11;43.07;;;21.30;;
7195;SDS011;3639;51.308;5.624;2023-11-18T03:27:38;45.43;;;22.13;;
7195;SDS011;3639;51.308;5.624;2023-11-18T03:30:04;46.10;;;22.30;;
7195;SDS011;3639;51.308;5.624;2023-11-18T03:32:31;47.93;;;21.90;;
7195;SDS011;3639;51.308;5.624;2023-11-18T03:34:57;44.43;;;21.93;;
7195;SDS011;3639;51.308;5.624;2023-11-18T03:37:24;52.47;;;22.90;;
7195;SDS011;3639;51.308;5.624;2023-11-18T03:39:51;50.80;;;23.57;;
7195;SDS011;3639;51.308;5.624;2023-11-18T03:42:17;50.07;;;23.40;;
7195;SDS011;3639;51.308;5.624;2023-11-18T03:44:42;41.43;;;21.43;;
7195;SDS011;3639;51.308;5.624;2023-11-18T03:47:09;44.40;;;23.03;;
7195;SDS011;3639;51.308;5.624;2023-11-18T03:49:34;43.43;;;22.77;;
7195;SDS011;3639;51.308;5.624;2023-11-18T03:52:00;44.50;;;22.30;;
7195;SDS011;3639;51.308;5.624;2023-11-18T03:54:25;47.03;;;23.77;;
7195;SDS011;3639;51.308;5.624;2023-11-18T03:56:52;45.40;;;21.33;;
7195;SDS011;3639;51.308;5.624;2023-11-18T03:59:17;46.37;;;23.70;;
7195;SDS011;3639;51.308;5.624;2023-11-18T04:01:43;44.83;;;21.23;;
7195;SDS011;3639;51.308;5.624;2023-11-18T04:04:08;45.03;;;21.43;;
7195;SDS011;3639;51.308;5.624;2023-11-18T04:06:34;45.60;;;22.13;;
7195;SDS011;3639;51.308;5.624;2023-11-18T04:08:59;41.47;;;22.07;;
7195;SDS011;3639;51.308;5.624;2023-11-18T04:11:25;40.90;;;21.10;;
7195;SDS011;3639;51.308;5.624;2023-11-18T04:13:50;43.73;;;21.83;;
7195;SDS011;3639;51.308;5.624;2023-11-18T04:16:16;50.93;;;22.47;;
7195;SDS011;3639;51.308;5.624;2023-11-18T04:18:42;49.43;;;23.53;;
7195;SDS011;3639;51.308;5.624;2023-11-18T04:21:09;43.97;;;22.57;;
7195;SDS011;3639;51.308;5.624;2023-11-18T04:23:39;47.03;;;22.37;;
7195;SDS011;3639;51.308;5.624;2023-11-18T04:26:07;47.10;;;22.00;;
7195;SDS011;3639;51.308;5.624;2023-11-18T04:28:33;47.23;;;21.30;;
7195;SDS011;3639;51.308;5.624;2023-11-18T04:31:00;45.10;;;21.63;;
7195;SDS011;3639;51.308;5.624;2023-11-18T04:33:26;44.67;;;22.00;;
7195;SDS011;3639;51.308;5.624;2023-11-18T04:35:52;45.70;;;21.47;;
7195;SDS011;3639;51.308;5.624;2023-11-18T04:38:18;55.80;;;23.77;;
7195;SDS011;3639;51.308;5.624;2023-11-18T04:40:44;46.83;;;22.53;;
7195;SDS011;3639;51.308;5.624;2023-11-18T04:43:10;43.27;;;21.40;;
7195;SDS011;3639;51.308;5.624;2023-11-18T04:45:36;44.90;;;22.73;;
7195;SDS011;3639;51.308;5.624;2023-11-18T04:48:03;49.03;;;21.43;;
7195;SDS011;3639;51.308;5.624;2023-11-18T04:50:29;45.77;;;22.37;;
7195;SDS011;3639;51.308;5.624;2023-11-18T04:52:55;44.17;;;21.23;;
7195;SDS011;3639;51.308;5.624;2023-11-18T04:55:21;43.40;;;21.30;;
7195;SDS011;3639;51.308;5.624;2023-11-18T04:57:47;39.80;;;19.90;;
7195;SDS011;3639;51.308;5.624;2023-11-18T05:00:12;40.60;;;19.90;;
7195;SDS011;3639;51.308;5.624;2023-11-18T05:02:42;39.70;;;20.70;;
7195;SDS011;3639;51.308;5.624;2023-11-18T05:05:08;45.63;;;20.13;;
7195;SDS011;3639;51.308;5.624;2023-11-18T05:07:34;42.83;;;19.23;;
7195;SDS011;3639;51.308;5.624;2023-11-18T05:10:00;39.63;;;19.50;;
7195;SDS011;3639;51.308;5.624;2023-11-18T05:12:28;37.87;;;18.73;;
7195;SDS011;3639;51.308;5.624;2023-11-18T05:14:54;41.87;;;19.73;;
7195;SDS011;3639;51.308;5.624;2023-11-18T05:17:21;37.87;;;19.00;;
7195;SDS011;3639;51.308;5.624;2023-11-18T05:19:47;41.20;;;19.00;;
7195;SDS011;3639;51.308;5.624;2023-11-18T05:22:13;34.83;;;17.27;;
7195;SDS011;3639;51.308;5.624;2023-11-18T05:24:38;34.37;;;17.50;;
7195;SDS011;3639;51.308;5.624;2023-11-18T05:27:04;35.23;;;18.53;;
7195;SDS011;3639;51.308;5.624;2023-11-18T05:29:30;37.37;;;17.90;;
7195;SDS011;3639;51.308;5.624;2023-11-18T05:31:57;35.73;;;17.70;;
7195;SDS011;3639;51.308;5.624;2023-11-18T05:34:23;39.50;;;17.87;;
7195;SDS011;3639;51.308;5.624;2023-11-18T05:36:48;30.63;;;16.67;;
7195;SDS011;3639;51.308;5.624;2023-11-18T05:39:19;33.30;;;17.10;;
7195;SDS011;3639;51.308;5.624;2023-11-18T05:41:45;34.00;;;17.40;;
7195;SDS011;3639;51.308;5.624;2023-11-18T05:44:17;32.40;;;18.27;;
7195;SDS011;3639;51.308;5.624;2023-11-18T05:46:44;37.17;;;17.10;;
7195;SDS011;3639;51.308;5.624;2023-11-18T05:49:16;34.57;;;17.73;;
7195;SDS011;3639;51.308;5.624;2023-11-18T05:51:43;36.07;;;16.30;;
7195;SDS011;3639;51.308;5.624;2023-11-18T05:54:09;35.53;;;16.40;;
7195;SDS011;3639;51.308;5.624;2023-11-18T05:56:35;36.07;;;18.50;;
7195;SDS011;3639;51.308;5.624;2023-11-18T05:59:01;35.03;;;17.57;;
7195;SDS011;3639;51.308;5.624;2023-11-18T06:01:27;31.93;;;16.97;;
7195;SDS011;3639;51.308;5.624;2023-11-18T06:03:54;30.33;;;17.53;;
7195;SDS011;3639;51.308;5.624;2023-11-18T06:06:21;34.37;;;16.40;;
7195;SDS011;3639;51.308;5.624;2023-11-18T06:08:47;28.23;;;16.63;;
7195;SDS011;3639;51.308;5.624;2023-11-18T06:11:13;30.10;;;16.73;;
7195;SDS011;3639;51.308;5.624;2023-11-18T06:13:43;31.07;;;15.90;;
7195;SDS011;3639;51.308;5.624;2023-11-18T06:16:13;29.40;;;15.47;;
7195;SDS011;3639;51.308;5.624;2023-11-18T06:18:41;28.77;;;15.07;;
7195;SDS011;3639;51.308;5.624;2023-11-18T06:21:10;30.33;;;15.03;;
7195;SDS011;3639;51.308;5.624;2023-11-18T06:23:40;27.93;;;15.40;;
7195;SDS011;3639;51.308;5.624;2023-11-18T06:26:07;25.57;;;14.73;;
7195;SDS011;3639;51.308;5.624;2023-11-18T06:28:35;29.93;;;13.90;;
7195;SDS011;3639;51.308;5.624;2023-11-18T06:31:02;25.10;;;13.33;;
7195;SDS011;3639;51.308;5.624;2023-11-18T06:33:28;29.23;;;14.33;;
7195;SDS011;3639;51.308;5.624;2023-11-18T06:35:54;27.40;;;13.90;;
7195;SDS011;3639;51.308;5.624;2023-11-18T06:38:21;26.97;;;14.63;;
7195;SDS011;3639;51.308;5.624;2023-11-18T06:40:47;26.97;;;14.80;;
7195;SDS011;3639;51.308;5.624;2023-11-18T06:43:17;21.00;;;13.83;;
7195;SDS011;3639;51.308;5.624;2023-11-18T06:45:43;22.43;;;11.77;;
7195;SDS011;3639;51.308;5.624;2023-11-18T06:48:09;20.20;;;11.87;;
7195;SDS011;3639;51.308;5.624;2023-11-18T06:50:35;23.37;;;12.07;;
7195;SDS011;3639;51.308;5.624;2023-11-18T06:53:01;21.37;;;13.40;;
7195;SDS011;3639;51.308;5.624;2023-11-18T06:55:26;24.27;;;12.87;;
7195;SDS011;3639;51.308;5.624;2023-11-18T06:57:52;34.47;;;13.37;;
7195;SDS011;3639;51.308;5.624;2023-11-18T07:00:20;23.07;;;11.83;;
7195;SDS011;3639;51.308;5.624;2023-11-18T07:02:47;22.93;;;12.50;;
7195;SDS011;3639;51.308;5.624;2023-11-18T07:05:12;19.90;;;11.87;;
7195;SDS011;3639;51.308;5.624;2023-11-18T07:07:39;20.23;;;11.97;;
7195;SDS011;3639;51.308;5.624;2023-11-18T07:10:05;24.37;;;11.47;;
7195;SDS011;3639;51.308;5.624;2023-11-18T07:12:32;17.13;;;10.73;;
7195;SDS011;3639;51.308;5.624;2023-11-18T07:14:59;21.13;;;11.93;;
7195;SDS011;3639;51.308;5.624;2023-11-18T07:17:26;17.03;;;10.93;;
7195;SDS011;3639;51.308;5.624;2023-11-18T07:19:51;16.73;;;10.37;;
7195;SDS011;3639;51.308;5.624;2023-11-18T07:22:17;19.97;;;10.30;;
7195;SDS011;3639;51.308;5.624;2023-11-18T07:24:42;17.90;;;10.20;;
7195;SDS011;3639;51.308;5.624;2023-11-18T07:27:08;18.13;;;9.20;;
7195;SDS011;3639;51.308;5.624;2023-11-18T07:29:36;18.03;;;10.17;;
7195;SDS011;3639;51.308;5.624;2023-11-18T07:32:02;20.63;;;9.63;;
7195;SDS011;3639;51.308;5.624;2023-11-18T07:34:30;19.47;;;9.53;;
7195;SDS011;3639;51.308;5.624;2023-11-18T07:36:58;14.93;;;8.73;;
7195;SDS011;3639;51.308;5.624;2023-11-18T07:39:23;16.13;;;9.40;;
7195;SDS011;3639;51.308;5.624;2023-11-18T07:41:49;17.50;;;9.17;;
7195;SDS011;3639;51.308;5.624;2023-11-18T07:44:15;21.13;;;9.33;;
7195;SDS011;3639;51.308;5.624;2023-11-18T07:46:41;17.40;;;9.43;;
7195;SDS011;3639;51.308;5.624;2023-11-18T07:49:07;16.17;;;9.33;;
7195;SDS011;3639;51.308;5.624;2023-11-18T07:51:34;17.23;;;9.00;;
7195;SDS011;3639;51.308;5.624;2023-11-18T07:53:59;14.13;;;9.17;;
7195;SDS011;3639;51.308;5.624;2023-11-18T07:56:25;17.67;;;8.90;;
7195;SDS011;3639;51.308;5.624;2023-11-18T07:58:52;15.47;;;8.20;;
7195;SDS011;3639;51.308;5.624;2023-11-18T08:01:19;15.67;;;9.03;;
7195;SDS011;3639;51.308;5.624;2023-11-18T08:03:46;14.57;;;8.70;;
7195;SDS011;3639;51.308;5.624;2023-11-18T08:06:12;20.03;;;8.80;;
7195;SDS011;3639;51.308;5.624;2023-11-18T08:08:38;17.50;;;7.80;;
7195;SDS011;3639;51.308;5.624;2023-11-18T08:11:05;16.37;;;8.43;;
7195;SDS011;3639;51.308;5.624;2023-11-18T08:13:30;19.17;;;8.50;;
7195;SDS011;3639;51.308;5.624;2023-11-18T08:15:56;39.53;;;18.00;;
7195;SDS011;3639;51.308;5.624;2023-11-18T08:18:25;17.27;;;9.00;;
7195;SDS011;3639;51.308;5.624;2023-11-18T08:20:52;13.60;;;8.33;;
7195;SDS011;3639;51.308;5.624;2023-11-18T08:23:18;11.57;;;7.47;;
7195;SDS011;3639;51.308;5.624;2023-11-18T08:25:44;20.77;;;8.63;;
7195;SDS011;3639;51.308;5.624;2023-11-18T08:28:11;13.17;;;7.63;;
7195;SDS011;3639;51.308;5.624;2023-11-18T08:30:37;12.67;;;8.23;;
7195;SDS011;3639;51.308;5.624;2023-11-18T08:33:03;13.07;;;7.30;;
7195;SDS011;3639;51.308;5.624;2023-11-18T08:35:35;15.53;;;7.43;;
7195;SDS011;3639;51.308;5.624;2023-11-18T08:38:01;13.67;;;7.17;;
7195;SDS011;3639;51.308;5.624;2023-11-18T08:40:28;14.70;;;7.07;;
7195;SDS011;3639;51.308;5.624;2023-11-18T08:42:54;13.33;;;7.80;;
7195;SDS011;3639;51.308;5.624;2023-11-18T08:45:21;12.07;;;7.50;;
7195;SDS011;3639;51.308;5.624;2023-11-18T08:47:52;13.63;;;7.27;;
7195;SDS011;3639;51.308;5.624;2023-11-18T08:50:18;10.03;;;6.67;;
7195;SDS011;3639;51.308;5.624;2023-11-18T08:52:47;11.13;;;6.93;;
7195;SDS011;3639;51.308;5.624;2023-11-18T08:55:13;15.90;;;6.97;;
7195;SDS011;3639;51.308;5.624;2023-11-18T08:57:49;10.87;;;6.53;;
7195;SDS011;3639;51.308;5.624;2023-11-18T09:00:25;10.97;;;6.60;;
7195;SDS011;3639;51.308;5.624;2023-11-18T09:03:10;10.80;;;7.07;;
7195;SDS011;3639;51.308;5.624;2023-11-18T09:05:49;14.00;;;6.60;;
7195;SDS011;3639;51.308;5.624;2023-11-18T09:08:29;14.70;;;6.73;;
7195;SDS011;3639;51.308;5.624;2023-11-18T09:10:59;12.37;;;6.60;;
7195;SDS011;3639;51.308;5.624;2023-11-18T09:13:32;9.70;;;6.43;;
7195;SDS011;3639;51.308;5.624;2023-11-18T09:16:00;15.37;;;6.57;;
7195;SDS011;3639;51.308;5.624;2023-11-18T09:18:33;14.50;;;6.53;;
7195;SDS011;3639;51.308;5.624;2023-11-18T09:21:00;12.77;;;6.43;;
7195;SDS011;3639;51.308;5.624;2023-11-18T09:23:31;18.83;;;7.00;;
7195;SDS011;3639;51.308;5.624;2023-11-18T09:25:59;17.37;;;6.70;;
7195;SDS011;3639;51.308;5.624;2023-11-18T09:28:26;18.80;;;6.83;;
7195;SDS011;3639;51.308;5.624;2023-11-18T09:30:55;10.60;;;6.57;;
7195;SDS011;3639;51.308;5.624;2023-11-18T09:33:26;13.83;;;7.70;;
7195;SDS011;3639;51.308;5.624;2023-11-18T09:36:07;11.53;;;5.90;;
7195;SDS011;3639;51.308;5.624;2023-11-18T09:38:37;14.80;;;6.20;;
7195;SDS011;3639;51.308;5.624;2023-11-18T09:41:05;13.57;;;7.00;;
7195;SDS011;3639;51.308;5.624;2023-11-18T09:43:36;21.07;;;6.97;;
7195;SDS011;3639;51.308;5.624;2023-11-18T09:46:13;11.27;;;6.27;;
7195;SDS011;3639;51.308;5.624;2023-11-18T09:48:42;11.77;;;6.03;;
7195;SDS011;3639;51.308;5.624;2023-11-18T09:51:13;13.83;;;5.70;;
7195;SDS011;3639;51.308;5.624;2023-11-18T09:53:42;15.80;;;5.90;;
7195;SDS011;3639;51.308;5.624;2023-11-18T09:56:13;13.00;;;5.37;;
7195;SDS011;3639;51.308;5.624;2023-11-18T09:59:00;9.80;;;5.47;;
7195;SDS011;3639;51.308;5.624;2023-11-18T10:01:32;11.47;;;5.60;;
7195;SDS011;3639;51.308;5.624;2023-11-18T10:04:04;9.17;;;5.00;;
7195;SDS011;3639;51.308;5.624;2023-11-18T10:06:32;11.93;;;5.57;;
7195;SDS011;3639;51.308;5.624;2023-11-18T10:09:01;10.33;;;5.10;;
7195;SDS011;3639;51.308;5.624;2023-11-18T10:11:40;13.67;;;5.20;;
7195;SDS011;3639;51.308;5.624;2023-11-18T10:14:11;15.17;;;5.70;;
7195;SDS011;3639;51.308;5.624;2023-11-18T10:16:40;14.27;;;5.40;;
7195;SDS011;3639;51.308;5.624;2023-11-18T10:19:07;12.17;;;5.20;;
7195;SDS011;3639;51.308;5.624;2023-11-18T10:21:37;14.37;;;5.33;;
7195;SDS011;3639;51.308;5.624;2023-11-18T10:24:08;8.77;;;4.80;;
7195;SDS011;3639;51.308;5.624;2023-11-18T10:26:40;11.00;;;5.53;;
7195;SDS011;3639;51.308;5.624;2023-11-18T10:29:08;8.87;;;4.97;;
7195;SDS011;3639;51.308;5.624;2023-11-18T10:31:34;7.67;;;5.10;;
7195;SDS011;3639;51.308;5.624;2023-11-18T10:34:02;12.83;;;4.73;;
7195;SDS011;3639;51.308;5.624;2023-11-18T10:36:32;14.40;;;4.77;;
7195;SDS011;3639;51.308;5.624;2023-11-18T10:38:58;10.07;;;5.10;;
7195;SDS011;3639;51.308;5.624;2023-11-18T10:41:26;9.23;;;4.70;;
7195;SDS011;3639;51.308;5.624;2023-11-18T10:44:07;8.93;;;4.90;;
7195;SDS011;3639;51.308;5.624;2023-11-18T10:46:39;12.83;;;4.80;;
7195;SDS011;3639;51.308;5.624;2023-11-18T10:49:06;9.07;;;4.07;;
7195;SDS011;3639;51.308;5.624;2023-11-18T10:51:35;12.27;;;6.70;;
7195;SDS011;3639;51.308;5.624;2023-11-18T10:54:04;12.07;;;5.13;;
7195;SDS011;3639;51.308;5.624;2023-11-18T10:56:40;11.27;;;4.37;;
7195;SDS011;3639;51.308;5.624;2023-11-18T10:59:12;11.17;;;4.73;;
7195;SDS011;3639;51.308;5.624;2023-11-18T11:01:44;11.27;;;4.30;;
7195;SDS011;3639;51.308;5.624;2023-11-18T11:04:13;10.53;;;4.67;;
7195;SDS011;3639;51.308;5.624;2023-11-18T11:06:42;7.83;;;4.90;;
7195;SDS011;3639;51.308;5.624;2023-11-18T11:09:17;16.07;;;4.97;;
7195;SDS011;3639;51.308;5.624;2023-11-18T11:11:53;11.90;;;4.43;;
7195;SDS011;3639;51.308;5.624;2023-11-18T11:14:22;10.10;;;5.10;;
7195;SDS011;3639;51.308;5.624;2023-11-18T11:16:54;10.47;;;4.60;;
7195;SDS011;3639;51.308;5.624;2023-11-18T11:19:24;12.07;;;4.87;;
7195;SDS011;3639;51.308;5.624;2023-11-18T11:22:04;8.43;;;4.47;;
7195;SDS011;3639;51.308;5.624;2023-11-18T11:29:59;8.00;;;4.20;;
7195;SDS011;3639;51.308;5.624;2023-11-18T11:32:38;8.57;;;4.43;;
7195;SDS011;3639;51.308;5.624;2023-11-18T11:35:13;10.93;;;4.27;;
7195;SDS011;3639;51.308;5.624;2023-11-18T11:37:46;8.97;;;4.13;;
7195;SDS011;3639;51.308;5.624;2023-11-18T11:40:13;7.20;;;3.90;;
7195;SDS011;3639;51.308;5.624;2023-11-18T11:42:46;13.87;;;4.37;;
7195;SDS011;3639;51.308;5.624;2023-11-18T11:45:23;13.27;;;3.73;;
7195;SDS011;3639;51.308;5.624;2023-11-18T11:47:53;8.17;;;3.90;;
7195;SDS011;3639;51.308;5.624;2023-11-18T11:50:46;6.67;;;3.40;;
7195;SDS011;3639;51.308;5.624;2023-11-18T11:53:26;15.03;;;3.90;;
7195;SDS011;3639;51.308;5.624;2023-11-18T11:55:58;5.73;;;3.23;;
7195;SDS011;3639;51.308;5.624;2023-11-18T11:58:38;9.57;;;3.63;;
7195;SDS011;3639;51.308;5.624;2023-11-18T12:01:27;9.37;;;3.67;;
7195;SDS011;3639;51.308;5.624;2023-11-18T12:04:02;9.83;;;3.50;;
7195;SDS011;3639;51.308;5.624;2023-11-18T12:06:31;12.03;;;4.23;;
7195;SDS011;3639;51.308;5.624;2023-11-18T12:09:00;5.47;;;3.70;;
7195;SDS011;3639;51.308;5.624;2023-11-18T12:11:32;13.73;;;3.83;;
7195;SDS011;3639;51.308;5.624;2023-11-18T12:14:05;6.53;;;4.10;;
7195;SDS011;3639;51.308;5.624;2023-11-18T12:19:46;9.20;;;3.07;;
7195;SDS011;3639;51.308;5.624;2023-11-18T12:22:22;7.30;;;3.60;;
7195;SDS011;3639;51.308;5.624;2023-11-18T12:32:57;6.70;;;3.10;;
7195;SDS011;3639;51.308;5.624;2023-11-18T12:38:42;6.33;;;3.17;;
7195;SDS011;3639;51.308;5.624;2023-11-18T12:47:04;8.40;;;3.37;;
7195;SDS011;3639;51.308;5.624;2023-11-18T12:49:40;6.83;;;3.50;;
7195;SDS011;3639;51.308;5.624;2023-11-18T12:52:07;8.17;;;3.73;;
7195;SDS011;3639;51.308;5.624;2023-11-18T12:54:34;4.93;;;3.03;;
7195;SDS011;3639;51.308;5.624;2023-11-18T12:57:03;7.93;;;3.90;;
7195;SDS011;3639;51.308;5.624;2023-11-18T12:59:33;4.30;;;2.93;;
7195;SDS011;3639;51.308;5.624;2023-11-18T13:01:59;7.47;;;3.90;;
7195;SDS011;3639;51.308;5.624;2023-11-18T13:04:29;6.53;;;3.30;;
7195;SDS011;3639;51.308;5.624;2023-11-18T13:06:59;8.73;;;3.83;;
7195;SDS011;3639;51.308;5.624;2023-11-18T13:09:25;6.47;;;2.90;;
7195;SDS011;3639;51.308;5.624;2023-11-18T13:11:58;4.47;;;3.37;;
7195;SDS011;3639;51.308;5.624;2023-11-18T13:14:25;6.70;;;3.17;;
7195;SDS011;3639;51.308;5.624;2023-11-18T13:16:55;9.53;;;3.40;;
7195;SDS011;3639;51.308;5.624;2023-11-18T13:19:25;11.50;;;3.73;;
7195;SDS011;3639;51.308;5.624;2023-11-18T13:21:55;5.50;;;2.50;;
7195;SDS011;3639;51.308;5.624;2023-11-18T13:24:22;5.07;;;3.00;;
7195;SDS011;3639;51.308;5.624;2023-11-18T13:26:47;5.17;;;3.47;;
7195;SDS011;3639;51.308;5.624;2023-11-18T13:29:13;4.40;;;3.00;;
7195;SDS011;3639;51.308;5.624;2023-11-18T13:31:39;4.73;;;3.80;;
7195;SDS011;3639;51.308;5.624;2023-11-18T13:34:05;5.47;;;3.50;;
7195;SDS011;3639;51.308;5.624;2023-11-18T13:36:32;8.63;;;4.23;;
7195;SDS011;3639;51.308;5.624;2023-11-18T13:38:58;12.93;;;11.00;;
7195;SDS011;3639;51.308;5.624;2023-11-18T13:41:30;6.63;;;5.30;;
7195;SDS011;3639;51.308;5.624;2023-11-18T13:43:56;4.90;;;4.10;;
7195;SDS011;3639;51.308;5.624;2023-11-18T13:46:23;3.20;;;2.83;;
7195;SDS011;3639;51.308;5.624;2023-11-18T13:48:49;4.13;;;2.53;;
7195;SDS011;3639;51.308;5.624;2023-11-18T13:51:17;3.73;;;2.93;;
7195;SDS011;3639;51.308;5.624;2023-11-18T13:53:47;3.73;;;2.83;;
7195;SDS011;3639;51.308;5.624;2023-11-18T13:56:13;8.53;;;3.57;;
7195;SDS011;3639;51.308;5.624;2023-11-18T13:58:41;5.80;;;2.87;;
7195;SDS011;3639;51.308;5.624;2023-11-18T14:01:07;3.77;;;2.73;;
7195;SDS011;3639;51.308;5.624;2023-11-18T14:03:36;3.83;;;3.17;;
7195;SDS011;3639;51.308;5.624;2023-11-18T14:06:02;3.90;;;2.60;;
7195;SDS011;3639;51.308;5.624;2023-11-18T14:08:31;4.57;;;2.60;;
7195;SDS011;3639;51.308;5.624;2023-11-18T14:10:56;3.20;;;2.90;;
7195;SDS011;3639;51.308;5.624;2023-11-18T14:13:22;6.07;;;2.90;;
7195;SDS011;3639;51.308;5.624;2023-11-18T14:15:48;4.90;;;2.73;;
7195;SDS011;3639;51.308;5.624;2023-11-18T14:18:20;6.00;;;2.80;;
7195;SDS011;3639;51.308;5.624;2023-11-18T14:20:45;3.53;;;2.60;;
7195;SDS011;3639;51.308;5.624;2023-11-18T14:23:13;3.03;;;2.50;;
7195;SDS011;3639;51.308;5.624;2023-11-18T14:25:39;3.23;;;2.20;;
7195;SDS011;3639;51.308;5.624;2023-11-18T14:28:04;3.67;;;2.43;;
7195;SDS011;3639;51.308;5.624;2023-11-18T14:30:33;3.20;;;2.43;;
7195;SDS011;3639;51.308;5.624;2023-11-18T14:32:59;2.27;;;2.03;;
7195;SDS011;3639;51.308;5.624;2023-11-18T14:35:25;3.20;;;2.37;;
7195;SDS011;3639;51.308;5.624;2023-11-18T14:37:51;3.27;;;2.97;;
7195;SDS011;3639;51.308;5.624;2023-11-18T14:40:16;2.87;;;2.10;;
7195;SDS011;3639;51.308;5.624;2023-11-18T14:42:43;3.07;;;2.70;;
7195;SDS011;3639;51.308;5.624;2023-11-18T14:45:13;2.40;;;2.20;;
7195;SDS011;3639;51.308;5.624;2023-11-18T14:47:39;3.53;;;2.23;;
7195;SDS011;3639;51.308;5.624;2023-11-18T14:50:06;2.97;;;2.57;;
7195;SDS011;3639;51.308;5.624;2023-11-18T14:52:40;2.80;;;2.50;;
7195;SDS011;3639;51.308;5.624;2023-11-18T14:55:06;3.77;;;2.37;;
7195;SDS011;3639;51.308;5.624;2023-11-18T14:57:37;10.30;;;8.83;;
7195;SDS011;3639;51.308;5.624;2023-11-18T15:00:07;13.57;;;8.30;;
7195;SDS011;3639;51.308;5.624;2023-11-18T15:02:33;12.93;;;8.43;;
7195;SDS011;3639;51.308;5.624;2023-11-18T15:05:01;23.13;;;14.00;;
7195;SDS011;3639;51.308;5.624;2023-11-18T15:07:29;10.90;;;7.03;;
7195;SDS011;3639;51.308;5.624;2023-11-18T15:09:55;9.70;;;5.10;;
7195;SDS011;3639;51.308;5.624;2023-11-18T15:12:22;12.50;;;7.93;;
7195;SDS011;3639;51.308;5.624;2023-11-18T15:14:48;2.90;;;2.70;;
7195;SDS011;3639;51.308;5.624;2023-11-18T15:17:14;5.60;;;5.17;;
7195;SDS011;3639;51.308;5.624;2023-11-18T15:19:39;9.03;;;6.67;;
7195;SDS011;3639;51.308;5.624;2023-11-18T15:22:05;12.50;;;8.40;;
7195;SDS011;3639;51.308;5.624;2023-11-18T15:24:31;10.33;;;7.50;;
7195;SDS011;3639;51.308;5.624;2023-11-18T15:27:00;3.10;;;2.80;;
7195;SDS011;3639;51.308;5.624;2023-11-18T15:29:28;2.23;;;2.03;;
7195;SDS011;3639;51.308;5.624;2023-11-18T15:31:58;2.60;;;2.40;;
7195;SDS011;3639;51.308;5.624;2023-11-18T15:34:24;2.27;;;2.07;;